Time;durP1;ratioP1;P1;durP2;ratioP2;P2;SDS_P1;SDS_P2;PMS_P1;PMS_P2;Temp;Humidity;BMP_temperature;BMP_pressure;BME280_temperature;BME280_humidity;BME280_pressure;Samples;Min_cycle;Max_cycle;Signal;HPM_P1;HPM_P2
2022/10/05 00:01:45;;;;;;;6.75;4.20;;;11.00;99.90;;;;;;4976100;28;20375;-71
2022/10/05 00:04:14;;;;;;;8.05;4.68;;;10.90;99.90;;;;;;4976568;28;20108;-71
2022/10/05 00:06:46;;;;;;;7.13;5.00;;;11.00;99.90;;;;;;4993046;28;20101;-71
2022/10/05 00:09:21;;;;;;;11.88;4.75;;;10.90;99.90;;;;;;4992732;28;20483;-71
2022/10/05 00:11:48;;;;;;;7.57;4.88;;;10.90;99.90;;;;;;4993587;28;20062;-71
2022/10/05 00:14:17;;;;;;;7.95;5.10;;;10.90;99.90;;;;;;4976459;28;20033;-71
2022/10/05 00:16:43;;;;;;;10.85;5.35;;;10.90;99.90;;;;;;4975776;28;20018;-71
2022/10/05 00:19:33;;;;;;;9.45;5.03;;;10.80;99.90;;;;;;4993957;28;20440;-71
2022/10/05 00:22:10;;;;;;;7.57;4.90;;;10.80;99.90;;;;;;4971668;28;20038;-71
2022/10/05 00:24:36;;;;;;;9.43;4.18;;;10.80;99.90;;;;;;4993220;28;20030;-71
2022/10/05 00:27:19;;;;;;;8.60;4.53;;;10.60;99.90;;;;;;4976104;28;20030;-71
2022/10/05 00:29:46;;;;;;;12.07;4.25;;;10.70;99.90;;;;;;4993151;28;20037;-71
2022/10/05 00:32:12;;;;;;;9.38;4.75;;;10.60;99.90;;;;;;4993408;28;20030;-71
2022/10/05 00:34:38;;;;;;;7.03;4.63;;;10.60;99.90;;;;;;4992866;28;20149;-71
2022/10/05 00:37:05;;;;;;;8.95;4.50;;;10.60;99.90;;;;;;4975300;28;20031;-71
2022/10/05 00:39:31;;;;;;;8.18;4.28;;;10.60;99.90;;;;;;4992682;28;20460;-71
2022/10/05 00:42:00;;;;;;;8.20;4.70;;;10.60;99.90;;;;;;4976037;28;20031;-71
2022/10/05 00:44:44;;;;;;;7.75;4.85;;;10.60;99.90;;;;;;4975331;28;20501;-71
2022/10/05 00:47:37;;;;;;;10.52;4.55;;;10.60;99.90;;;;;;4993466;28;20077;-71
2022/10/05 00:50:03;;;;;;;6.95;4.28;;;10.60;99.90;;;;;;4993420;28;20495;-71
2022/10/05 00:52:52;;;;;;;9.38;4.40;;;10.50;99.90;;;;;;4992526;28;20084;-71
2022/10/05 00:55:34;;;;;;;9.02;4.70;;;10.50;99.90;;;;;;4975899;28;20080;-71
2022/10/05 00:57:59;;;;;;;6.35;4.32;;;10.40;99.90;;;;;;4993210;28;20062;-71
2022/10/05 01:00:26;;;;;;;10.65;4.60;;;10.30;99.90;;;;;;4993233;28;20607;-75
2022/10/05 01:03:18;;;;;;;8.85;4.45;;;10.30;99.90;;;;;;4993188;28;20038;-71
2022/10/05 01:06:21;;;;;;;7.68;4.28;;;10.30;99.90;;;;;;4992544;28;20026;-71
2022/10/05 01:09:10;;;;;;;7.07;4.40;;;10.20;99.90;;;;;;4974994;28;20054;-71
2022/10/05 01:11:47;;;;;;;9.73;4.55;;;10.30;99.90;;;;;;4974829;28;20037;-71
2022/10/05 01:14:26;;;;;;;7.93;4.40;;;10.30;99.90;;;;;;4975641;28;20145;-71
2022/10/05 01:17:10;;;;;;;8.02;4.78;;;10.10;99.90;;;;;;4975359;28;20117;-71
2022/10/05 01:19:38;;;;;;;9.02;4.40;;;10.10;99.90;;;;;;4992436;28;20026;-71
2022/10/05 01:22:07;;;;;;;6.43;4.65;;;10.10;99.90;;;;;;4992985;28;20029;-71
2022/10/05 01:25:01;;;;;;;9.18;4.72;;;10.10;99.90;;;;;;4974730;28;20029;-71
2022/10/05 01:27:48;;;;;;;6.32;4.13;;;10.20;99.90;;;;;;4992637;28;20495;-75
2022/10/05 01:30:17;;;;;;;10.18;4.90;;;10.20;99.90;;;;;;4975533;28;20022;-71
2022/10/05 01:33:05;;;;;;;7.25;4.10;;;10.30;99.90;;;;;;4990700;28;20497;-71
2022/10/05 01:36:01;;;;;;;15.63;5.13;;;10.30;99.90;;;;;;4974764;28;20030;-72
2022/10/05 01:38:34;;;;;;;6.78;4.47;;;10.30;99.90;;;;;;4992490;28;20403;-74
2022/10/05 01:41:29;;;;;;;9.82;5.07;;;10.30;99.90;;;;;;4975571;28;20026;-71
2022/10/05 01:44:08;;;;;;;9.57;5.00;;;10.40;99.90;;;;;;4960294;28;20037;-71
2022/10/05 01:46:40;;;;;;;7.35;4.65;;;10.60;99.90;;;;;;4974815;28;20484;-71
2022/10/05 01:49:27;;;;;;;8.30;5.03;;;10.60;99.90;;;;;;4993792;28;20034;-71
2022/10/05 01:51:52;;;;;;;9.02;4.63;;;10.70;99.90;;;;;;4978116;28;20046;-71
2022/10/05 01:54:37;;;;;;;9.82;5.30;;;10.70;99.90;;;;;;4996229;28;20536;-71
2022/10/05 01:57:28;;;;;;;10.35;5.00;;;10.80;99.90;;;;;;4979146;28;20053;-71
2022/10/05 02:00:03;;;;;;;7.07;4.07;;;10.70;99.90;;;;;;4978599;28;20022;-71
2022/10/05 02:02:32;;;;;;;7.85;4.50;;;10.60;99.90;;;;;;4978321;28;20026;-72
2022/10/05 02:05:06;;;;;;;5.75;4.10;;;10.50;99.90;;;;;;4978796;28;20411;-71
2022/10/05 02:07:42;;;;;;;7.10;4.28;;;10.40;99.90;;;;;;4995704;28;20038;-73
2022/10/05 02:10:19;;;;;;;8.85;4.82;;;10.50;99.90;;;;;;4996309;28;20165;-71
2022/10/05 02:12:47;;;;;;;9.02;4.13;;;10.40;99.90;;;;;;4978074;28;20097;-71
2022/10/05 02:15:24;;;;;;;6.82;4.20;;;10.40;99.90;;;;;;4978714;28;20080;-71
2022/10/05 02:17:56;;;;;;;5.03;3.72;;;10.30;99.90;;;;;;4995260;28;20022;-71
2022/10/05 02:20:26;;;;;;;5.72;4.25;;;10.20;99.90;;;;;;4994992;28;20023;-71
2022/10/05 02:22:57;;;;;;;8.52;4.40;;;10.20;99.90;;;;;;4995578;28;20030;-71
2022/10/05 02:25:28;;;;;;;7.10;4.13;;;10.20;99.90;;;;;;4996225;28;20026;-71
2022/10/05 02:28:03;;;;;;;8.55;4.18;;;10.10;99.90;;;;;;4977681;28;20494;-71
2022/10/05 02:30:32;;;;;;;8.25;4.18;;;10.00;99.90;;;;;;4978574;28;20038;-71
2022/10/05 02:33:06;;;;;;;5.75;3.83;;;10.00;99.90;;;;;;4977866;28;20031;-71
2022/10/05 02:35:33;;;;;;;10.35;4.22;;;10.00;99.90;;;;;;4995002;28;20042;-76
2022/10/05 02:38:18;;;;;;;10.20;5.10;;;10.00;99.90;;;;;;4978191;28;20038;-71
2022/10/05 02:41:03;;;;;;;6.53;4.20;;;9.90;99.90;;;;;;4977506;28;20030;-71
2022/10/05 02:44:05;;;;;;;7.57;4.05;;;9.90;99.90;;;;;;4994343;28;20026;-71
2022/10/05 02:46:55;;;;;;;9.88;3.92;;;9.90;99.90;;;;;;4995545;28;20030;-74
2022/10/05 02:49:48;;;;;;;10.02;4.10;;;10.00;99.90;;;;;;4977251;28;20042;-71
2022/10/05 02:52:46;;;;;;;13.05;5.00;;;10.20;99.90;;;;;;4995785;28;20070;-71
2022/10/05 02:55:18;;;;;;;13.98;4.97;;;10.30;99.90;;;;;;4994129;28;20542;-71
2022/10/05 02:57:47;;;;;;;8.50;4.60;;;10.30;99.90;;;;;;4994765;28;20066;-71
2022/10/05 03:00:20;;;;;;;12.70;4.70;;;10.30;99.90;;;;;;4976908;28;20126;-71
2022/10/05 03:02:56;;;;;;;10.45;5.15;;;10.30;99.90;;;;;;4994975;28;20105;-71
2022/10/05 03:05:30;;;;;;;8.57;4.55;;;10.30;99.90;;;;;;4977626;28;20045;-71
2022/10/05 03:08:11;;;;;;;10.77;4.63;;;10.20;99.90;;;;;;4976981;28;20387;-71
2022/10/05 03:10:52;;;;;;;9.15;5.30;;;10.20;99.90;;;;;;4994464;28;20031;-74
2022/10/05 03:13:47;;;;;;;10.13;5.45;;;10.20;99.90;;;;;;4995127;28;20101;-71
2022/10/05 03:16:43;;;;;;;11.35;6.30;;;10.20;99.90;;;;;;4977819;28;20401;-71
2022/10/05 03:19:09;;;;;;;10.68;5.82;;;10.20;99.90;;;;;;4977631;28;20033;-71
2022/10/05 03:21:52;;;;;;;17.20;7.13;;;10.20;99.90;;;;;;4977121;28;20030;-74
2022/10/05 03:24:59;;;;;;;13.43;7.38;;;10.20;99.90;;;;;;4977643;28;20423;-71
2022/10/05 03:27:53;;;;;;;14.23;7.80;;;10.20;99.90;;;;;;4969619;28;20556;-70
2022/10/05 03:30:21;;;;;;;16.52;7.55;;;10.20;99.90;;;;;;4994880;28;20049;-71
2022/10/05 03:33:08;;;;;;;13.38;7.72;;;10.30;99.90;;;;;;4976659;28;20030;-71
2022/10/05 03:35:57;;;;;;;14.70;7.72;;;10.30;99.90;;;;;;4994570;28;20030;-73
2022/10/05 03:39:04;;;;;;;19.50;8.32;;;10.30;99.90;;;;;;4977316;28;20048;-71
2022/10/05 03:41:49;;;;;;;19.80;8.02;;;10.30;99.90;;;;;;4977105;28;20026;-71
2022/10/05 03:44:35;;;;;;;17.10;7.75;;;10.40;99.90;;;;;;4977187;28;20427;-71
2022/10/05 03:47:06;;;;;;;18.90;9.25;;;10.40;99.90;;;;;;4994100;28;20034;-71
2022/10/05 03:49:38;;;;;;;32.83;9.95;;;10.40;99.90;;;;;;4976748;28;20558;-71
2022/10/05 03:52:40;;;;;;;20.42;8.25;;;10.40;99.90;;;;;;4976967;28;20022;-71
2022/10/05 03:55:25;;;;;;;20.67;9.13;;;10.40;99.90;;;;;;4975852;28;20050;-71
2022/10/05 03:57:54;;;;;;;17.63;9.20;;;10.50;99.90;;;;;;4976148;28;20035;-71
2022/10/05 04:00:22;;;;;;;18.90;8.40;;;10.50;99.90;;;;;;4976794;28;20049;-71
2022/10/05 04:03:01;;;;;;;15.32;9.23;;;10.50;99.90;;;;;;4975991;28;20085;-71
2022/10/05 04:05:32;;;;;;;17.55;8.52;;;10.50;99.90;;;;;;4976741;28;20058;-71
2022/10/05 04:08:06;;;;;;;14.97;7.90;;;10.50;99.90;;;;;;4975496;28;20033;-71
2022/10/05 04:10:53;;;;;;;15.48;8.30;;;10.50;99.90;;;;;;4976578;28;20757;-71
2022/10/05 04:13:47;;;;;;;15.90;8.48;;;10.50;99.90;;;;;;4994397;28;20022;-72
2022/10/05 04:16:20;;;;;;;15.23;8.10;;;10.60;99.90;;;;;;4974963;28;20042;-71
2022/10/05 04:19:13;;;;;;;15.02;7.20;;;10.60;99.90;;;;;;4991976;28;20122;-72
2022/10/05 04:21:48;;;;;;;16.60;7.45;;;10.60;99.90;;;;;;4958552;28;20477;-74
2022/10/05 04:24:38;;;;;;;13.10;7.22;;;10.70;99.90;;;;;;4993733;28;20026;-71
2022/10/05 04:27:12;;;;;;;15.05;6.38;;;10.70;99.90;;;;;;4992127;28;20076;-71
2022/10/05 04:29:47;;;;;;;13.20;6.72;;;10.70;99.90;;;;;;4976002;28;20055;-75
2022/10/05 04:32:37;;;;;;;12.43;5.57;;;10.70;99.90;;;;;;4975793;28;20038;-71
2022/10/05 04:35:18;;;;;;;9.75;5.93;;;10.70;99.90;;;;;;4975758;28;20038;-71
2022/10/05 04:37:49;;;;;;;12.63;6.35;;;10.60;99.90;;;;;;4975349;28;20037;-71
2022/10/05 04:40:24;;;;;;;10.70;5.80;;;10.70;99.90;;;;;;4993147;28;20388;-71
2022/10/05 04:43:18;;;;;;;12.70;6.30;;;10.60;99.90;;;;;;4975404;28;20117;-71
2022/10/05 04:46:03;;;;;;;12.52;6.55;;;10.70;99.90;;;;;;4975424;28;20092;-71
2022/10/05 04:48:56;;;;;;;16.05;6.82;;;10.60;99.90;;;;;;4976099;28;20494;-71
2022/10/05 04:51:49;;;;;;;14.73;5.93;;;10.60;99.90;;;;;;4975770;28;20058;-71
2022/10/05 04:54:44;;;;;;;11.48;6.75;;;10.60;99.90;;;;;;4993045;28;20456;-71
2022/10/05 04:57:16;;;;;;;15.73;6.68;;;10.50;99.90;;;;;;4975967;28;20044;-71
2022/10/05 05:00:08;;;;;;;12.05;6.40;;;10.50;99.90;;;;;;4975663;28;20029;-74
2022/10/05 05:02:47;;;;;;;20.15;6.22;;;10.50;99.90;;;;;;4975875;28;20108;-70
2022/10/05 05:05:33;;;;;;;19.52;6.78;;;10.40;99.90;;;;;;4993230;28;20034;-71
2022/10/05 05:08:36;;;;;;;18.05;6.22;;;10.50;99.90;;;;;;4992420;28;20104;-71
2022/10/05 05:11:13;;;;;;;16.55;6.07;;;10.40;99.90;;;;;;4974932;28;20023;-71
2022/10/05 05:14:00;;;;;;;18.77;6.10;;;10.40;99.90;;;;;;4993412;28;20026;-71
2022/10/05 05:16:46;;;;;;;13.50;6.20;;;10.40;99.90;;;;;;4975849;28;20058;-72
2022/10/05 05:19:33;;;;;;;13.07;6.53;;;10.40;99.90;;;;;;4992088;28;20113;-71
2022/10/05 05:22:09;;;;;;;35.40;6.88;;;10.40;99.90;;;;;;4974787;28;20117;-71
2022/10/05 05:24:50;;;;;;;20.48;6.13;;;10.30;99.90;;;;;;4991389;28;20033;-71
2022/10/05 05:27:39;;;;;;;15.10;6.07;;;10.30;99.90;;;;;;4975597;28;20085;-71
2022/10/05 05:30:05;;;;;;;13.90;5.60;;;10.30;99.90;;;;;;4975001;28;20033;-71
2022/10/05 05:33:04;;;;;;;14.02;6.20;;;10.40;99.90;;;;;;4975321;28;20031;-71
2022/10/05 05:35:33;;;;;;;15.05;6.07;;;10.40;99.90;;;;;;4975622;28;20034;-71
2022/10/05 05:38:12;;;;;;;11.98;5.70;;;10.30;99.90;;;;;;4974783;28;20030;-71
2022/10/05 05:40:58;;;;;;;10.73;6.05;;;10.40;99.90;;;;;;4992653;28;20081;-71
2022/10/05 05:43:34;;;;;;;13.57;6.35;;;10.40;99.90;;;;;;4992943;28;20395;-71
2022/10/05 05:46:27;;;;;;;10.45;5.75;;;10.40;99.90;;;;;;4974655;28;20088;-71
2022/10/05 05:48:56;;;;;;;10.57;5.78;;;10.40;99.90;;;;;;4971439;28;20050;-71
2022/10/05 05:51:39;;;;;;;11.30;5.72;;;10.40;99.90;;;;;;4992892;28;20455;-71
2022/10/05 05:54:14;;;;;;;12.48;6.45;;;10.50;99.90;;;;;;4974665;28;20089;-71
2022/10/05 05:56:52;;;;;;;8.70;5.63;;;10.50;99.90;;;;;;4992444;28;20054;-71
2022/10/05 05:59:31;;;;;;;12.82;6.38;;;10.50;99.90;;;;;;4991228;28;20479;-71
2022/10/05 06:02:07;;;;;;;17.98;6.68;;;10.50;99.90;;;;;;4974406;28;20041;-71
2022/10/05 06:04:46;;;;;;;13.48;6.88;;;10.60;99.90;;;;;;4992671;28;20031;-71
2022/10/05 06:07:17;;;;;;;18.55;7.68;;;10.60;99.90;;;;;;4975189;28;20195;-71
2022/10/05 06:09:55;;;;;;;20.23;8.00;;;10.60;99.90;;;;;;4975009;28;20033;-74
2022/10/05 06:12:30;;;;;;;21.83;8.45;;;10.70;99.90;;;;;;4975372;28;20034;-71
2022/10/05 06:15:23;;;;;;;29.85;8.63;;;10.70;99.90;;;;;;4974377;28;20117;-71
2022/10/05 06:17:53;;;;;;;28.50;9.90;;;10.70;99.90;;;;;;4991813;28;20062;-72
2022/10/05 06:20:41;;;;;;;30.73;10.50;;;10.70;99.90;;;;;;4975276;28;20352;-71
2022/10/05 06:23:14;;;;;;;28.08;10.00;;;10.70;99.90;;;;;;4991934;28;20486;-71
2022/10/05 06:25:54;;;;;;;23.48;9.48;;;10.70;99.90;;;;;;4992506;28;20065;-71
2022/10/05 06:28:20;;;;;;;22.65;9.05;;;10.80;99.90;;;;;;4974880;28;20046;-71
2022/10/05 06:31:11;;;;;;;23.67;9.20;;;10.80;99.90;;;;;;4974572;28;20037;-73
2022/10/05 06:33:47;;;;;;;25.25;9.15;;;10.80;99.90;;;;;;4991146;28;20030;-71
2022/10/05 06:36:25;;;;;;;21.40;8.68;;;10.90;99.90;;;;;;4977209;28;20026;-71
2022/10/05 06:39:24;;;;;;;22.02;8.60;;;10.90;99.90;;;;;;4993849;28;20118;-72
2022/10/05 06:42:07;;;;;;;24.10;8.70;;;10.90;99.90;;;;;;4994743;28;20464;-72
2022/10/05 06:44:59;;;;;;;26.33;8.93;;;11.00;99.90;;;;;;4995455;28;20022;-71
2022/10/05 06:47:34;;;;;;;;;;;11.00;99.90;;;;;;4978334;28;20085;-71
2022/10/05 06:50:08;;;;;;;12.73;6.53;;;11.00;99.90;;;;;;4977114;28;19918;-71
2022/10/05 06:52:34;;;;;;;14.50;7.18;;;11.00;99.90;;;;;;4978142;28;20030;-72
2022/10/05 06:55:14;;;;;;;13.77;7.35;;;11.00;99.90;;;;;;4977411;28;20030;-71
2022/10/05 06:57:52;;;;;;;14.35;7.43;;;11.00;99.90;;;;;;4995451;28;20057;-71
2022/10/05 07:00:20;;;;;;;15.23;7.32;;;11.00;99.90;;;;;;4977953;28;20460;-71
2022/10/05 07:02:59;;;;;;;13.95;6.60;;;11.00;99.90;;;;;;4993869;28;20026;-72
2022/10/05 07:05:49;;;;;;;12.70;7.32;;;11.00;99.90;;;;;;4978041;28;20030;-71
2022/10/05 07:08:15;;;;;;;14.52;6.45;;;11.10;99.90;;;;;;4977609;28;20035;-71
2022/10/05 07:10:41;;;;;;;12.02;6.55;;;11.10;99.90;;;;;;4977299;28;20084;-72
2022/10/05 07:13:06;;;;;;;15.18;7.13;;;11.10;99.90;;;;;;4977198;28;20093;-72
2022/10/05 07:15:44;;;;;;;15.35;6.60;;;11.10;99.90;;;;;;4974539;28;20027;-71
2022/10/05 07:18:18;;;;;;;12.05;7.30;;;11.20;99.90;;;;;;4973528;28;20482;-72
2022/10/05 07:20:54;;;;;;;13.68;6.80;;;11.20;99.90;;;;;;4974525;28;20034;-71
2022/10/05 07:23:48;;;;;;;14.02;6.97;;;11.30;99.90;;;;;;4958257;28;20050;-72
2022/10/05 07:26:30;;;;;;;10.73;6.70;;;11.30;99.90;;;;;;4975258;28;20030;-71
2022/10/05 07:29:46;;;;;;;11.52;7.05;;;11.30;99.90;;;;;;4957414;28;20090;-72
2022/10/05 07:32:30;;;;;;;12.25;7.20;;;11.40;99.90;;;;;;4925426;28;20034;-72
2022/10/05 07:34:56;;;;;;;13.20;7.35;;;11.50;99.90;;;;;;4957298;28;20523;-72
2022/10/05 07:37:55;;;;;;;16.13;7.63;;;11.50;99.90;;;;;;4973959;28;20207;-72
2022/10/05 07:40:39;;;;;;;12.10;7.22;;;11.60;99.90;;;;;;4974190;28;20027;-72
2022/10/05 07:43:24;;;;;;;15.23;7.70;;;11.70;99.90;;;;;;4956843;28;20118;-72
2022/10/05 07:46:07;;;;;;;15.18;7.65;;;11.80;99.90;;;;;;4973282;28;20038;-74
2022/10/05 07:48:44;;;;;;;13.75;7.72;;;11.80;99.90;;;;;;4957967;28;20089;-71
2022/10/05 07:51:47;;;;;;;12.38;7.95;;;11.90;99.90;;;;;;4972904;28;20363;-72
2022/10/05 07:54:44;;;;;;;13.18;8.30;;;12.00;99.90;;;;;;4917974;28;20038;-71
2022/10/05 07:57:51;;;;;;;14.40;8.18;;;12.00;99.90;;;;;;4973391;28;20034;-72
2022/10/05 08:00:19;;;;;;;13.82;7.80;;;12.10;99.90;;;;;;4975028;28;20027;-71
2022/10/05 08:02:53;;;;;;;14.35;8.23;;;12.10;99.90;;;;;;4957535;28;20100;-72
2022/10/05 08:05:27;;;;;;;13.85;8.43;;;12.10;99.90;;;;;;4973653;28;20034;-72
2022/10/05 08:08:09;;;;;;;11.40;7.53;;;12.10;99.90;;;;;;4956602;28;20038;-72
2022/10/05 08:11:09;;;;;;;14.68;8.10;;;12.20;99.90;;;;;;4973787;28;20162;-71
2022/10/05 08:13:44;;;;;;;12.50;7.43;;;12.20;99.90;;;;;;4943536;28;20031;-73
2022/10/05 08:16:15;;;;;;;14.23;7.45;;;12.20;99.90;;;;;;4974279;28;20250;-72
2022/10/05 08:18:56;;;;;;;14.27;7.35;;;12.30;99.90;;;;;;4957223;28;20090;-72
2022/10/05 08:21:33;;;;;;;11.20;7.28;;;12.30;99.90;;;;;;4974636;28;20073;-72
2022/10/05 08:24:30;;;;;;;11.90;7.45;;;12.40;99.90;;;;;;4956831;28;20040;-72
2022/10/05 08:27:05;;;;;;;13.32;7.65;;;12.40;99.90;;;;;;4972781;28;20389;-72
2022/10/05 08:29:41;;;;;;;12.63;7.45;;;12.40;99.90;;;;;;4985539;28;20026;-72
2022/10/05 08:32:18;;;;;;;11.57;7.35;;;12.50;99.90;;;;;;4990670;28;20040;-72
2022/10/05 08:34:47;;;;;;;11.20;6.75;;;12.50;99.90;;;;;;4992334;28;20109;-72
2022/10/05 08:37:27;;;;;;;11.57;7.40;;;12.60;99.90;;;;;;4990319;28;20065;-72
2022/10/05 08:40:29;;;;;;;14.00;7.43;;;12.70;99.90;;;;;;4974399;28;20033;-73
2022/10/05 08:42:58;;;;;;;13.15;6.82;;;12.70;99.90;;;;;;4977278;28;20030;-73
2022/10/05 08:46:16;;;;;;;13.30;7.65;;;12.80;99.90;;;;;;4974745;28;20030;-72
2022/10/05 08:49:09;;;;;;;12.52;7.30;;;12.80;99.90;;;;;;4934742;29;20501;-72
2022/10/05 08:52:00;;;;;;;12.27;6.60;;;12.90;99.90;;;;;;4974037;28;20060;-73
2022/10/05 08:54:28;;;;;;;14.15;7.18;;;13.00;99.90;;;;;;4974740;28;20389;-72
2022/10/05 08:57:25;;;;;;;11.15;6.88;;;13.00;99.90;;;;;;4991379;28;20022;-72
2022/10/05 09:00:12;;;;;;;11.93;7.68;;;13.10;99.90;;;;;;4991185;28;20026;-72
2022/10/05 09:03:07;;;;;;;12.43;7.18;;;13.10;99.90;;;;;;4990085;28;20101;-72
2022/10/05 09:06:03;;;;;;;12.00;6.63;;;13.20;99.90;;;;;;4991618;28;20030;-71
2022/10/05 09:08:56;;;;;;;12.10;7.05;;;13.20;99.90;;;;;;4975027;28;20431;-74
2022/10/05 09:12:07;;;;;;;12.93;6.82;;;13.30;99.90;;;;;;4985033;28;20034;-74
2022/10/05 09:14:54;;;;;;;11.45;6.78;;;13.30;99.90;;;;;;4966941;28;20393;-74
2022/10/05 09:18:02;;;;;;;11.90;7.10;;;13.40;99.90;;;;;;4991991;28;20034;-74
2022/10/05 09:20:49;;;;;;;11.45;6.55;;;13.50;99.90;;;;;;4992170;28;20031;-74
2022/10/05 09:23:36;;;;;;;11.88;6.55;;;13.50;99.90;;;;;;4991072;28;20462;-74
2022/10/05 09:26:47;;;;;;;10.40;6.55;;;13.60;99.90;;;;;;4989667;28;20023;-74
2022/10/05 09:29:44;;;;;;;11.10;6.50;;;13.70;99.90;;;;;;4973016;28;20518;-74
2022/10/05 09:32:40;;;;;;;9.43;6.13;;;13.80;99.90;;;;;;4973742;28;20058;-73
2022/10/05 09:35:33;;;;;;;9.30;6.20;;;13.80;99.90;;;;;;4989368;28;20088;-73
2022/10/05 09:38:18;;;;;;;11.20;5.97;;;13.90;99.90;;;;;;4991356;28;20037;-73
2022/10/05 09:41:15;;;;;;;9.77;6.13;;;13.90;99.90;;;;;;4974351;28;20077;-73
2022/10/05 09:43:56;;;;;;;7.93;5.35;;;14.00;99.90;;;;;;4992226;28;20026;-73
2022/10/05 09:46:40;;;;;;;11.40;6.10;;;14.10;99.90;;;;;;4974548;28;20030;-75
2022/10/05 09:49:38;;;;;;;10.77;5.88;;;14.10;99.90;;;;;;4974206;28;20423;-74
2022/10/05 09:52:09;;;;;;;11.02;6.97;;;14.20;99.90;;;;;;4990119;28;20031;-74
2022/10/05 09:54:55;;;;;;;;;;;14.20;99.90;;;;;;4991821;28;20054;-73
2022/10/05 09:57:59;;;;;;;7.50;5.00;;;14.30;99.90;;;;;;4989046;28;20486;-74
2022/10/05 10:01:02;;;;;;;8.38;5.00;;;14.40;99.90;;;;;;4976000;28;20065;-73
2022/10/05 10:04:06;;;;;;;7.47;4.53;;;14.40;99.90;;;;;;4967370;28;20595;-75
2022/10/05 10:07:03;;;;;;;9.13;5.03;;;14.50;99.90;;;;;;4974111;28;20109;-74
2022/10/05 10:10:06;;;;;;;9.70;4.63;;;14.50;99.90;;;;;;4975471;28;20045;-74
2022/10/05 10:12:40;;;;;;;10.63;4.70;;;14.60;99.90;;;;;;4994661;28;20026;-74
2022/10/05 10:15:18;;;;;;;9.23;4.82;;;14.70;99.90;;;;;;4994284;28;20499;-74
2022/10/05 10:18:01;;;;;;;7.32;4.28;;;14.80;99.90;;;;;;4994858;28;20034;-74
2022/10/05 10:20:48;;;;;;;7.45;3.95;;;14.80;99.90;;;;;;4994305;28;20098;-74
2022/10/05 10:23:27;;;;;;;6.90;3.85;;;14.90;99.90;;;;;;4994220;28;20026;-74
2022/10/05 10:26:15;;;;;;;6.90;4.07;;;15.10;99.90;;;;;;4986694;28;20085;-74
2022/10/05 10:28:51;;;;;;;7.00;4.25;;;15.20;99.90;;;;;;4993734;28;20042;-74
2022/10/05 10:31:44;;;;;;;6.78;3.65;;;15.30;99.90;;;;;;4976439;28;20030;-74
2022/10/05 10:34:21;;;;;;;6.07;3.88;;;15.40;99.90;;;;;;4983804;28;20044;-73
2022/10/05 10:37:15;;;;;;;8.68;3.33;;;15.50;99.90;;;;;;4977108;28;20121;-74
2022/10/05 10:39:55;;;;;;;6.45;3.88;;;15.40;99.90;;;;;;4993194;28;20082;-74
2022/10/05 10:42:41;;;;;;;5.40;3.38;;;15.60;99.90;;;;;;4993924;28;20021;-74
2022/10/05 10:45:41;;;;;;;5.18;3.25;;;15.60;99.90;;;;;;4976250;28;20054;-74
2022/10/05 10:48:10;;;;;;;4.07;3.20;;;15.80;99.90;;;;;;4993620;28;20117;-74
2022/10/05 10:50:36;;;;;;;6.57;3.70;;;16.00;99.90;;;;;;4976472;28;20051;-75
2022/10/05 10:53:26;;;;;;;4.25;3.22;;;16.00;99.90;;;;;;4976505;28;20463;-76
2022/10/05 10:56:08;;;;;;;5.63;3.08;;;16.10;99.90;;;;;;4992427;28;20141;-74
2022/10/05 10:58:43;;;;;;;;;;;16.10;99.90;;;;;;4977165;28;20121;-74
2022/10/05 11:01:25;;;;;;;6.20;2.58;;;16.30;99.90;;;;;;4992187;28;20252;-74
2022/10/05 11:04:15;;;;;;;4.95;2.75;;;16.30;99.90;;;;;;4994054;28;20034;-74
2022/10/05 11:06:46;;;;;;;5.18;2.88;;;16.40;99.90;;;;;;4994087;28;20242;-76
2022/10/05 11:09:38;;;;;;;3.55;2.60;;;16.40;99.90;;;;;;4975174;28;20061;-74
2022/10/05 11:12:16;;;;;;;;;;;16.50;99.90;;;;;;4993454;28;20023;-76
2022/10/05 11:15:00;;;;;;;7.30;3.08;;;16.60;99.90;;;;;;4976396;28;19906;-73
2022/10/05 11:18:01;;;;;;;6.75;2.58;;;16.80;99.90;;;;;;4991540;28;20034;-75
2022/10/05 11:20:45;;;;;;;5.53;2.13;;;16.90;99.90;;;;;;4992698;28;20089;-74
2022/10/05 11:23:40;;;;;;;3.38;2.22;;;17.00;99.90;;;;;;4975633;28;20034;-74
2022/10/05 11:26:28;;;;;;;3.63;2.17;;;17.10;99.90;;;;;;4975616;28;20030;-74
2022/10/05 11:29:22;;;;;;;5.60;2.13;;;17.30;99.90;;;;;;4993582;28;20038;-74
2022/10/05 11:32:15;;;;;;;4.60;1.92;;;17.60;99.90;;;;;;4993665;28;20098;-74
2022/10/05 11:35:15;;;;;;;4.95;2.08;;;17.70;99.90;;;;;;4992263;28;20031;-74
2022/10/05 11:38:07;;;;;;;4.38;1.85;;;17.90;99.90;;;;;;4975868;28;20034;-75
2022/10/05 11:40:47;;;;;;;2.83;1.77;;;18.00;99.90;;;;;;4993696;28;20041;-75
2022/10/05 11:43:58;;;;;;;4.43;2.00;;;18.00;99.90;;;;;;4975368;28;20476;-75
2022/10/05 11:46:53;;;;;;;4.47;1.95;;;18.10;99.90;;;;;;4935397;29;20523;-75
2022/10/05 11:49:52;;;;;;;5.13;1.90;;;18.20;99.90;;;;;;4992575;28;20089;-74
2022/10/05 11:52:43;;;;;;;3.55;1.90;;;18.40;99.90;;;;;;4992448;28;20038;-75
2022/10/05 11:55:18;;;;;;;3.77;2.17;;;18.70;99.90;;;;;;4975672;28;20419;-75
2022/10/05 11:57:57;;;;;;;2.05;1.70;;;18.80;99.90;;;;;;4991932;28;20271;-75
2022/10/05 12:00:30;;;;;;;4.05;1.73;;;19.00;99.90;;;;;;4992679;28;20037;-75
2022/10/05 12:03:19;;;;;;;5.25;2.13;;;19.20;99.90;;;;;;4975897;28;20026;-74
2022/10/05 12:06:06;;;;;;;2.95;1.70;;;19.30;99.90;;;;;;4974985;28;20391;-75
2022/10/05 12:08:38;;;;;;;2.95;1.70;;;19.50;99.90;;;;;;4992163;28;20080;-75
2022/10/05 12:11:42;;;;;;;1.90;1.50;;;19.70;99.90;;;;;;4975401;28;20117;-74
2022/10/05 12:14:36;;;;;;;2.22;1.50;;;20.00;99.90;;;;;;4991244;28;20073;-76
2022/10/05 12:17:17;;;;;;;3.40;1.50;;;20.20;99.90;;;;;;4975421;28;20030;-76
2022/10/05 12:19:50;;;;;;;1.35;1.17;;;20.40;99.90;;;;;;4975496;28;20033;-76
2022/10/05 12:22:36;;;;;;;4.43;1.40;;;20.70;99.90;;;;;;4992500;28;20062;-74
2022/10/05 12:25:05;;;;;;;5.82;1.40;;;21.00;99.90;;;;;;4990535;28;20104;-75
2022/10/05 12:27:45;;;;;;;2.28;1.25;;;21.20;99.90;;;;;;4992910;28;20044;-75
2022/10/05 12:30:10;;;;;;;2.65;1.27;;;21.40;99.90;;;;;;4991064;28;20031;-75
2022/10/05 12:32:39;;;;;;;1.90;1.17;;;21.70;99.90;;;;;;4975159;28;20030;-79
2022/10/05 12:35:24;;;;;;;2.50;1.20;;;21.90;99.90;;;;;;4975809;28;20070;-77
2022/10/05 12:37:52;;;;;;;2.15;1.13;;;22.10;99.90;;;;;;4992121;28;20034;-78
2022/10/05 12:40:52;;;;;;;4.28;1.17;;;22.40;99.90;;;;;;4992964;28;20583;-77
2022/10/05 12:43:46;;;;;;;2.88;1.15;;;22.90;99.90;;;;;;4975206;28;20026;-78
2022/10/05 12:46:18;;;;;;;2.03;1.30;;;23.30;99.90;;;;;;4975027;28;20027;-78
2022/10/05 12:49:06;;;;;;;1.85;1.00;;;23.80;99.90;;;;;;4991300;28;20030;-77
2022/10/05 12:51:46;;;;;;;4.53;1.27;;;24.30;98.70;;;;;;4976083;28;20104;-82
2022/10/05 12:54:21;;;;;;;2.50;1.00;;;24.80;97.80;;;;;;4975107;28;20322;-80
2022/10/05 12:57:19;;;;;;;2.75;0.80;;;25.30;96.20;;;;;;4975572;28;20030;-78
2022/10/05 13:00:02;;;;;;;1.92;1.00;;;25.70;93.50;;;;;;4975724;28;20101;-77
2022/10/05 13:02:41;;;;;;;3.53;1.92;;;25.90;91.90;;;;;;4992616;28;20052;-78
2022/10/05 13:05:09;;;;;;;1.42;1.02;;;26.30;91.30;;;;;;4991328;28;20388;-78
2022/10/05 13:07:58;;;;;;;3.00;1.20;;;26.60;90.80;;;;;;4975455;28;20085;-78
2022/10/05 13:10:32;;;;;;;2.33;0.98;;;26.60;88.70;;;;;;4975408;28;20022;-78
2022/10/05 13:13:27;;;;;;;2.85;1.02;;;26.60;90.00;;;;;;4975554;28;20054;-78
2022/10/05 13:16:04;;;;;;;2.72;1.00;;;27.40;85.60;;;;;;4939559;28;20066;-77
2022/10/05 13:19:11;;;;;;;1.92;1.00;;;28.00;86.00;;;;;;4950774;29;20031;-78
2022/10/05 13:21:48;;;;;;;4.38;0.93;;;28.60;82.00;;;;;;4940950;29;20109;-81
2022/10/05 13:24:40;;;;;;;2.70;1.35;;;29.30;77.00;;;;;;4950331;29;20063;-76
2022/10/05 13:27:24;;;;;;;2.85;1.20;;;29.60;73.00;;;;;;4967888;28;20031;-78
2022/10/05 13:30:11;;;;;;;4.78;1.10;;;30.10;71.00;;;;;;4967912;28;20027;-77
2022/10/05 13:32:45;;;;;;;2.40;1.20;;;30.10;71.10;;;;;;4951547;29;20077;-77
2022/10/05 13:35:28;;;;;;;4.07;0.90;;;30.20;70.00;;;;;;4943522;29;20043;-83
2022/10/05 13:37:58;;;;;;;2.50;1.20;;;29.90;67.70;;;;;;4951847;29;20094;-77
2022/10/05 13:41:02;;;;;;;4.30;1.13;;;30.10;69.70;;;;;;4967424;28;20529;-78
2022/10/05 13:43:51;;;;;;;2.72;0.90;;;30.30;67.70;;;;;;4951027;28;20036;-78
2022/10/05 13:46:44;;;;;;;4.82;0.90;;;30.30;66.00;;;;;;4953155;29;20035;-76
2022/10/05 13:49:36;;;;;;;1.60;1.10;;;30.20;67.40;;;;;;4968970;28;20514;-76
2022/10/05 13:52:26;;;;;;;1.60;1.13;;;30.10;66.60;;;;;;4993670;28;20390;-83
2022/10/05 13:55:36;;;;;;;1.00;0.90;;;29.90;67.20;;;;;;4995275;28;20068;-77
2022/10/05 13:58:25;;;;;;;5.75;1.00;;;29.20;67.50;;;;;;4955641;29;20039;-77
2022/10/05 14:00:57;;;;;;;3.35;1.15;;;28.50;70.10;;;;;;4977910;28;20082;-77
2022/10/05 14:03:33;;;;;;;1.92;1.00;;;28.00;72.10;;;;;;4995029;28;20031;-78